Time;durP1;ratioP1;P1;durP2;ratioP2;P2;SDS_P1;SDS_P2;PMS_P1;PMS_P2;Temp;Humidity;BMP_temperature;BMP_pressure;BME280_temperature;BME280_humidity;BME280_pressure;Samples;Min_cycle;Max_cycle;Signal;HPM_P1;HPM_P2
2023/05/26 00:00:12;;;;;;;15.90;8.30;;;;;;;;;;4994198;28;20113;-64
2023/05/26 00:02:39;;;;;;;14.80;7.93;;;;;;;;;;4994245;28;20030;-64
2023/05/26 00:05:08;;;;;;;17.08;6.70;;;;;;;;;;4994474;28;20421;-65
2023/05/26 00:07:39;;;;;;;14.40;7.82;;;;;;;;;;4994160;28;20022;-65
2023/05/26 00:10:14;;;;;;;18.55;8.23;;;;;;;;;;4994038;28;20046;-65
2023/05/26 00:12:40;;;;;;;16.88;8.23;;;;;;;;;;4994076;28;20118;-65
2023/05/26 00:15:09;;;;;;;14.20;7.32;;;;;;;;;;4994033;28;20109;-64
2023/05/26 00:17:36;;;;;;;17.73;7.82;;;;;;;;;;4993862;28;20091;-65
2023/05/26 00:20:02;;;;;;;13.60;7.53;;;;;;;;;;4993796;28;20033;-65
2023/05/26 00:22:28;;;;;;;16.00;7.68;;;;;;;;;;4993752;28;20030;-65
2023/05/26 00:24:53;;;;;;;14.00;7.40;;;;;;;;;;4993742;28;20026;-64
2023/05/26 00:27:19;;;;;;;15.57;7.50;;;;;;;;;;4993900;28;20034;-65
2023/05/26 00:29:47;;;;;;;11.85;7.57;;;;;;;;;;4993685;28;20046;-65
2023/05/26 00:32:13;;;;;;;14.93;7.85;;;;;;;;;;4993451;28;20038;-65
2023/05/26 00:34:38;;;;;;;16.13;8.13;;;;;;;;;;4992393;28;20077;-64
2023/05/26 00:37:04;;;;;;;18.52;7.97;;;;;;;;;;4993553;28;20038;-65
2023/05/26 00:39:30;;;;;;;16.38;8.10;;;;;;;;;;4993906;28;20041;-65
2023/05/26 00:41:56;;;;;;;16.20;7.57;;;;;;;;;;4993436;28;20049;-65
2023/05/26 00:44:22;;;;;;;15.80;8.13;;;;;;;;;;4993779;28;20050;-65
2023/05/26 00:46:48;;;;;;;18.70;7.97;;;;;;;;;;4993649;28;20486;-65
2023/05/26 00:49:13;;;;;;;19.48;7.45;;;;;;;;;;4992102;28;20026;-65
2023/05/26 00:51:40;;;;;;;18.27;7.55;;;;;;;;;;4993257;28;20045;-65
2023/05/26 00:54:06;;;;;;;15.98;8.20;;;;;;;;;;4993560;28;20444;-65
2023/05/26 00:56:35;;;;;;;14.93;7.68;;;;;;;;;;4993552;28;20072;-65
2023/05/26 00:59:02;;;;;;;14.43;7.78;;;;;;;;;;4993617;28;20482;-64
2023/05/26 01:01:29;;;;;;;13.80;7.75;;;;;;;;;;4993254;28;20031;-65
2023/05/26 01:03:55;;;;;;;14.20;7.43;;;;;;;;;;4993548;28;20026;-65
2023/05/26 01:06:22;;;;;;;14.27;7.47;;;;;;;;;;4993192;28;20520;-64
2023/05/26 01:08:48;;;;;;;15.07;7.38;;;;;;;;;;4993133;28;20525;-65
2023/05/26 01:11:47;;;;;;;14.05;6.85;;;;;;;;;;4993027;28;20501;-65
2023/05/26 01:14:19;;;;;;;13.17;7.60;;;;;;;;;;4993172;28;20027;-65
2023/05/26 01:16:52;;;;;;;17.27;7.97;;;;;;;;;;4993373;28;20034;-65
2023/05/26 01:19:43;;;;;;;10.88;6.97;;;;;;;;;;4993095;28;20033;-65
2023/05/26 01:22:11;;;;;;;12.18;7.35;;;;;;;;;;4992927;28;20041;-65
2023/05/26 01:24:50;;;;;;;12.90;7.55;;;;;;;;;;4993045;28;20102;-65
2023/05/26 01:27:31;;;;;;;13.85;7.07;;;;;;;;;;4993031;28;20049;-65
2023/05/26 01:29:57;;;;;;;12.43;8.38;;;;;;;;;;4992968;28;20026;-64
2023/05/26 01:32:24;;;;;;;12.90;6.95;;;;;;;;;;4993174;28;20478;-65
2023/05/26 01:34:50;;;;;;;11.63;6.90;;;;;;;;;;4993168;28;20037;-65
2023/05/26 01:37:15;;;;;;;14.35;7.68;;;;;;;;;;4992724;28;20406;-65
2023/05/26 01:39:44;;;;;;;16.27;7.82;;;;;;;;;;4993094;28;20026;-65
2023/05/26 01:42:18;;;;;;;15.20;7.30;;;;;;;;;;4992838;28;20093;-65
2023/05/26 01:44:48;;;;;;;11.45;6.93;;;;;;;;;;4992899;28;20026;-65
2023/05/26 01:47:14;;;;;;;12.50;7.38;;;;;;;;;;4992849;28;20490;-65
2023/05/26 01:49:45;;;;;;;15.27;7.53;;;;;;;;;;4992661;28;20030;-64
2023/05/26 01:52:15;;;;;;;11.70;7.20;;;;;;;;;;4992713;28;20049;-65
2023/05/26 01:54:55;;;;;;;12.05;6.90;;;;;;;;;;4992670;28;20033;-64
2023/05/26 01:57:21;;;;;;;15.35;7.25;;;;;;;;;;4992687;28;20434;-64
2023/05/26 01:59:47;;;;;;;13.23;7.18;;;;;;;;;;4992896;28;20133;-65
2023/05/26 02:02:12;;;;;;;15.82;7.30;;;;;;;;;;4992701;28;20105;-65
2023/05/26 02:04:38;;;;;;;14.82;7.50;;;;;;;;;;4992533;28;20034;-65
2023/05/26 02:07:05;;;;;;;15.32;7.20;;;;;;;;;;4994134;28;20072;-65
2023/05/26 02:09:32;;;;;;;11.10;6.93;;;;;;;;;;4996186;28;20034;-64
2023/05/26 02:11:57;;;;;;;13.63;7.22;;;;;;;;;;4996179;28;20359;-64
2023/05/26 02:14:23;;;;;;;12.15;7.32;;;;;;;;;;4996387;28;20045;-65
2023/05/26 02:16:48;;;;;;;12.50;6.75;;;;;;;;;;4996183;28;20482;-65
2023/05/26 02:19:14;;;;;;;12.00;6.78;;;;;;;;;;4996117;28;20018;-65
2023/05/26 02:21:39;;;;;;;13.93;7.40;;;;;;;;;;4996084;28;20105;-65
2023/05/26 02:24:05;;;;;;;12.60;6.95;;;;;;;;;;4996276;28;20035;-65
2023/05/26 02:26:31;;;;;;;15.27;7.75;;;;;;;;;;4996051;28;20026;-65
2023/05/26 02:28:56;;;;;;;14.88;6.90;;;;;;;;;;4996049;28;20031;-64
2023/05/26 02:31:22;;;;;;;15.80;7.45;;;;;;;;;;4996160;28;20034;-65
2023/05/26 02:33:49;;;;;;;13.43;7.10;;;;;;;;;;4996170;28;20042;-65
2023/05/26 02:36:14;;;;;;;13.77;7.50;;;;;;;;;;4995861;28;20030;-65
2023/05/26 02:38:40;;;;;;;13.45;7.50;;;;;;;;;;4995639;28;20105;-65
2023/05/26 02:41:07;;;;;;;11.50;7.47;;;;;;;;;;4995742;28;20386;-65
2023/05/26 02:43:33;;;;;;;13.70;7.30;;;;;;;;;;4995951;28;20046;-65
2023/05/26 02:45:59;;;;;;;12.43;7.82;;;;;;;;;;4995967;28;20426;-65
2023/05/26 02:48:24;;;;;;;11.25;6.80;;;;;;;;;;4995871;28;20041;-65
2023/05/26 02:50:50;;;;;;;13.00;7.00;;;;;;;;;;4995436;28;20022;-64
2023/05/26 02:53:16;;;;;;;13.35;7.43;;;;;;;;;;4995559;28;20077;-65
2023/05/26 02:55:42;;;;;;;14.32;7.93;;;;;;;;;;4995513;28;20089;-65
2023/05/26 02:58:07;;;;;;;12.55;7.55;;;;;;;;;;4995566;28;20489;-65
2023/05/26 03:00:33;;;;;;;10.15;6.95;;;;;;;;;;4995447;28;20101;-65
2023/05/26 03:03:00;;;;;;;12.13;7.22;;;;;;;;;;4995394;28;20109;-65
2023/05/26 03:05:25;;;;;;;10.98;7.15;;;;;;;;;;4995568;28;20030;-65
2023/05/26 03:07:51;;;;;;;11.73;6.53;;;;;;;;;;4995502;28;20484;-65
2023/05/26 03:10:16;;;;;;;12.25;6.70;;;;;;;;;;4995442;28;20148;-65
2023/05/26 03:12:42;;;;;;;11.95;6.80;;;;;;;;;;4995181;28;20057;-65
2023/05/26 03:15:08;;;;;;;10.93;6.80;;;;;;;;;;4995148;28;20113;-65
2023/05/26 03:17:33;;;;;;;12.60;7.10;;;;;;;;;;4994488;28;20026;-65
2023/05/26 03:19:59;;;;;;;12.27;7.07;;;;;;;;;;4994411;28;20030;-64
2023/05/26 03:22:25;;;;;;;12.82;7.00;;;;;;;;;;4994922;28;20038;-64
2023/05/26 03:24:50;;;;;;;12.80;7.43;;;;;;;;;;4995173;28;20063;-65
2023/05/26 03:27:17;;;;;;;14.15;7.00;;;;;;;;;;4995063;28;20030;-64
2023/05/26 03:29:43;;;;;;;12.52;7.03;;;;;;;;;;4994859;28;20069;-64
2023/05/26 03:32:08;;;;;;;12.43;6.72;;;;;;;;;;4994703;28;20034;-64
2023/05/26 03:34:39;;;;;;;14.18;7.57;;;;;;;;;;4994779;28;20050;-65
2023/05/26 03:37:05;;;;;;;;;;;;;;;;;;4995199;28;20029;-65
2023/05/26 03:39:30;;;;;;;9.77;6.60;;;;;;;;;;4995019;28;20324;-64
2023/05/26 03:41:56;;;;;;;10.20;6.90;;;;;;;;;;4994826;28;20113;-64
2023/05/26 03:44:22;;;;;;;10.80;6.28;;;;;;;;;;4994652;28;20058;-64
2023/05/26 03:46:47;;;;;;;11.10;6.95;;;;;;;;;;4994335;28;20022;-63
2023/05/26 03:49:13;;;;;;;12.57;6.82;;;;;;;;;;4994728;28;20038;-64
2023/05/26 03:51:39;;;;;;;12.23;7.30;;;;;;;;;;4994557;28;20359;-64
2023/05/26 03:54:04;;;;;;;11.82;6.50;;;;;;;;;;4994687;28;20490;-64
2023/05/26 03:56:30;;;;;;;9.65;6.53;;;;;;;;;;4994301;28;20544;-65
2023/05/26 03:58:56;;;;;;;11.68;7.10;;;;;;;;;;4994334;28;20138;-65
2023/05/26 04:01:22;;;;;;;9.10;6.25;;;;;;;;;;4994204;28;20105;-64
2023/05/26 04:03:48;;;;;;;10.90;7.05;;;;;;;;;;4994261;28;20041;-64
2023/05/26 04:06:14;;;;;;;13.27;7.05;;;;;;;;;;4994131;28;20032;-64
2023/05/26 04:08:39;;;;;;;12.18;6.68;;;;;;;;;;4994108;28;20022;-64
2023/05/26 04:11:05;;;;;;;10.40;6.60;;;;;;;;;;4994190;28;20501;-64
2023/05/26 04:13:30;;;;;;;11.23;6.88;;;;;;;;;;4994298;28;20045;-64
2023/05/26 04:15:56;;;;;;;11.88;7.28;;;;;;;;;;4993863;28;20394;-64
2023/05/26 04:18:23;;;;;;;10.35;7.00;;;;;;;;;;4993921;28;20113;-64
2023/05/26 04:20:48;;;;;;;11.90;7.38;;;;;;;;;;4993829;28;20026;-63
2023/05/26 04:23:14;;;;;;;10.00;6.32;;;;;;;;;;4994094;28;20088;-63
2023/05/26 04:25:40;;;;;;;9.80;6.82;;;;;;;;;;4993839;28;20027;-63
2023/05/26 04:28:07;;;;;;;9.13;6.45;;;;;;;;;;4993632;28;20037;-63
2023/05/26 04:30:38;;;;;;;12.02;6.68;;;;;;;;;;4993163;28;20026;-63
2023/05/26 04:33:05;;;;;;;13.98;7.25;;;;;;;;;;4993982;28;20041;-62
2023/05/26 04:35:32;;;;;;;11.25;6.50;;;;;;;;;;4993846;28;20023;-65
2023/05/26 04:37:58;;;;;;;9.48;6.47;;;;;;;;;;4993310;28;20132;-64
2023/05/26 04:40:24;;;;;;;10.02;6.53;;;;;;;;;;4993458;28;20057;-63
2023/05/26 04:42:50;;;;;;;11.75;6.93;;;;;;;;;;4993782;28;20030;-64
2023/05/26 04:45:15;;;;;;;10.57;6.93;;;;;;;;;;4991732;28;20382;-64
2023/05/26 04:47:42;;;;;;;10.25;6.65;;;;;;;;;;4992201;28;20117;-64
2023/05/26 04:50:12;;;;;;;10.93;6.90;;;;;;;;;;4992251;28;20026;-64
2023/05/26 04:52:41;;;;;;;10.98;6.45;;;;;;;;;;4991760;28;20053;-64
2023/05/26 04:55:08;;;;;;;12.05;6.82;;;;;;;;;;4992150;28;20041;-64
2023/05/26 04:57:33;;;;;;;9.00;6.30;;;;;;;;;;4992528;28;20529;-64
2023/05/26 04:59:59;;;;;;;11.10;6.85;;;;;;;;;;4992638;28;20026;-64
2023/05/26 05:02:24;;;;;;;11.75;6.88;;;;;;;;;;4991701;28;20042;-64
2023/05/26 05:04:50;;;;;;;9.57;6.32;;;;;;;;;;4991398;28;20045;-64
2023/05/26 05:07:16;;;;;;;8.60;6.25;;;;;;;;;;4993348;28;20034;-64
2023/05/26 05:09:41;;;;;;;8.98;5.95;;;;;;;;;;4993141;28;20359;-64
2023/05/26 05:12:07;;;;;;;7.88;6.03;;;;;;;;;;4993194;28;20038;-64
2023/05/26 05:14:32;;;;;;;10.38;6.28;;;;;;;;;;4993300;28;20030;-64
2023/05/26 05:16:58;;;;;;;9.38;6.35;;;;;;;;;;4992324;28;20061;-64
2023/05/26 05:19:23;;;;;;;9.10;6.18;;;;;;;;;;4992426;28;20026;-65
2023/05/26 05:21:49;;;;;;;9.27;6.38;;;;;;;;;;4993304;28;20030;-64
2023/05/26 05:24:15;;;;;;;10.27;6.20;;;;;;;;;;4992943;28;20030;-65
2023/05/26 05:26:41;;;;;;;8.57;6.40;;;;;;;;;;4993221;28;20033;-64
2023/05/26 05:29:07;;;;;;;9.25;6.10;;;;;;;;;;4992850;28;20065;-64
2023/05/26 05:31:33;;;;;;;9.45;5.95;;;;;;;;;;4992941;28;20375;-64
2023/05/26 05:33:58;;;;;;;8.43;5.97;;;;;;;;;;4992792;28;20033;-64
2023/05/26 05:36:24;;;;;;;9.55;6.45;;;;;;;;;;4993054;28;20031;-65
2023/05/26 05:38:50;;;;;;;8.90;6.22;;;;;;;;;;4992674;28;20523;-65
2023/05/26 05:41:15;;;;;;;10.32;6.10;;;;;;;;;;4993356;28;20026;-65
2023/05/26 05:43:41;;;;;;;8.75;6.20;;;;;;;;;;4996714;28;20382;-65
2023/05/26 05:46:07;;;;;;;9.10;6.32;;;;;;;;;;4996656;28;20034;-65
2023/05/26 05:48:32;;;;;;;7.35;5.85;;;;;;;;;;4996967;28;20058;-65
2023/05/26 05:50:59;;;;;;;7.47;5.82;;;;;;;;;;4996492;28;20466;-65
2023/05/26 05:53:25;;;;;;;8.48;6.13;;;;;;;;;;4996871;28;20041;-65
2023/05/26 05:55:50;;;;;;;9.35;5.85;;;;;;;;;;4996576;28;20398;-65
2023/05/26 05:58:16;;;;;;;10.25;6.30;;;;;;;;;;4996607;28;20046;-65
2023/05/26 06:00:41;;;;;;;8.65;5.55;;;;;;;;;;4996771;28;20042;-65
2023/05/26 06:03:07;;;;;;;10.40;6.38;;;;;;;;;;4996702;28;20030;-65
2023/05/26 06:05:32;;;;;;;7.85;5.93;;;;;;;;;;4996314;28;20027;-65
2023/05/26 06:07:58;;;;;;;9.20;6.38;;;;;;;;;;5011456;28;20014;-65
2023/05/26 06:10:23;;;;;;;9.05;6.43;;;;;;;;;;5011293;28;20471;-65
2023/05/26 06:12:49;;;;;;;7.45;5.68;;;;;;;;;;4996122;28;20085;-65
2023/05/26 06:15:17;;;;;;;8.70;5.88;;;;;;;;;;4996115;28;20027;-65
2023/05/26 06:17:43;;;;;;;7.82;5.63;;;;;;;;;;4996165;28;20034;-65
2023/05/26 06:20:09;;;;;;;10.18;6.30;;;;;;;;;;4996106;28;20027;-65
2023/05/26 06:22:36;;;;;;;9.07;6.15;;;;;;;;;;4996057;28;20030;-64
2023/05/26 06:25:03;;;;;;;7.75;5.50;;;;;;;;;;4995938;28;20022;-65
2023/05/26 06:27:29;;;;;;;7.90;6.00;;;;;;;;;;4995891;28;20416;-64
2023/05/26 06:29:55;;;;;;;8.35;5.95;;;;;;;;;;4996228;28;20022;-65
2023/05/26 06:32:20;;;;;;;10.05;5.95;;;;;;;;;;4996168;28;20378;-64
2023/05/26 06:34:47;;;;;;;7.97;5.75;;;;;;;;;;4995926;28;20465;-64
2023/05/26 06:37:13;;;;;;;9.75;6.25;;;;;;;;;;4995686;28;20050;-65
2023/05/26 06:39:39;;;;;;;8.25;5.80;;;;;;;;;;4995870;28;20105;-65
2023/05/26 06:42:05;;;;;;;9.45;6.40;;;;;;;;;;4996095;28;20138;-65
2023/05/26 06:44:32;;;;;;;9.60;5.90;;;;;;;;;;4995710;28;20022;-65
2023/05/26 06:46:58;;;;;;;7.93;6.15;;;;;;;;;;4995706;28;20022;-65
2023/05/26 06:49:23;;;;;;;8.73;6.10;;;;;;;;;;4995755;28;20105;-65
2023/05/26 06:51:49;;;;;;;10.13;6.40;;;;;;;;;;4995402;28;20030;-65
2023/05/26 06:54:15;;;;;;;7.63;5.88;;;;;;;;;;4995447;28;20073;-64
2023/05/26 06:56:40;;;;;;;10.25;6.35;;;;;;;;;;4995460;28;20533;-66
2023/05/26 06:59:06;;;;;;;9.65;5.60;;;;;;;;;;4995391;28;20428;-65
2023/05/26 07:01:32;;;;;;;7.85;5.90;;;;;;;;;;4994131;28;20031;-64
2023/05/26 07:03:58;;;;;;;8.40;5.90;;;;;;;;;;4995491;28;20030;-65
2023/05/26 07:06:23;;;;;;;8.32;5.97;;;;;;;;;;4995565;28;20030;-65
2023/05/26 07:08:49;;;;;;;7.60;5.95;;;;;;;;;;5010273;28;20488;-65
2023/05/26 07:11:14;;;;;;;10.18;5.90;;;;;;;;;;4995178;28;20034;-66
2023/05/26 07:13:40;;;;;;;7.55;5.97;;;;;;;;;;4995131;28;20174;-65
2023/05/26 07:16:06;;;;;;;8.02;6.18;;;;;;;;;;4995383;28;20023;-65
2023/05/26 07:18:31;;;;;;;8.52;5.80;;;;;;;;;;4994900;28;20406;-66
2023/05/26 07:20:57;;;;;;;7.65;6.15;;;;;;;;;;4995297;28;20041;-65
2023/05/26 07:23:22;;;;;;;7.35;5.63;;;;;;;;;;4993537;28;20022;-66
2023/05/26 07:25:48;;;;;;;7.88;5.85;;;;;;;;;;4995160;28;20042;-65
2023/05/26 07:28:13;;;;;;;7.28;5.97;;;;;;;;;;4994801;28;20033;-65
2023/05/26 07:30:39;;;;;;;7.10;6.03;;;;;;;;;;4994970;28;20026;-66
2023/05/26 07:33:05;;;;;;;7.00;5.47;;;;;;;;;;4995687;28;20048;-66
2023/05/26 07:35:30;;;;;;;8.68;5.90;;;;;;;;;;5000006;28;20018;-64
2023/05/26 07:37:56;;;;;;;10.05;5.90;;;;;;;;;;4999316;28;20042;-65
2023/05/26 07:40:22;;;;;;;8.20;5.78;;;;;;;;;;4999359;28;20018;-65
2023/05/26 07:42:48;;;;;;;8.38;5.85;;;;;;;;;;5000802;28;20050;-63
2023/05/26 07:45:13;;;;;;;7.75;5.50;;;;;;;;;;5002444;28;20437;-65
2023/05/26 07:47:40;;;;;;;7.00;5.85;;;;;;;;;;5007066;28;20390;-65
2023/05/26 07:50:06;;;;;;;7.03;5.47;;;;;;;;;;4995363;28;20033;-65
2023/05/26 07:52:32;;;;;;;16.90;5.68;;;;;;;;;;4990619;28;20092;-66
2023/05/26 07:54:58;;;;;;;8.57;6.03;;;;;;;;;;4992028;28;20034;-66
2023/05/26 07:57:24;;;;;;;7.72;5.75;;;;;;;;;;4991617;28;20058;-64
2023/05/26 07:59:49;;;;;;;12.27;6.30;;;;;;;;;;4992829;28;20038;-65
2023/05/26 08:02:15;;;;;;;9.30;5.57;;;;;;;;;;4992601;28;20112;-66
2023/05/26 08:04:41;;;;;;;9.38;5.88;;;;;;;;;;4992277;28;20026;-64
2023/05/26 08:07:07;;;;;;;7.47;5.90;;;;;;;;;;4992544;28;20478;-66
2023/05/26 08:09:32;;;;;;;8.98;5.60;;;;;;;;;;4992470;28;20113;-64
2023/05/26 08:11:58;;;;;;;10.80;6.60;;;;;;;;;;4992720;28;20057;-64
2023/05/26 08:14:24;;;;;;;7.38;6.00;;;;;;;;;;4991465;28;20437;-64
2023/05/26 08:16:50;;;;;;;9.02;5.97;;;;;;;;;;4992458;28;20026;-66
2023/05/26 08:19:15;;;;;;;9.90;5.70;;;;;;;;;;4992461;28;20034;-64
2023/05/26 08:21:41;;;;;;;15.65;7.50;;;;;;;;;;4992719;28;20418;-65
2023/05/26 08:24:06;;;;;;;8.82;6.50;;;;;;;;;;4992537;28;20030;-66
2023/05/26 08:26:32;;;;;;;10.30;6.78;;;;;;;;;;4992385;28;20418;-63
2023/05/26 08:28:57;;;;;;;8.77;6.10;;;;;;;;;;4992245;28;20037;-67
2023/05/26 08:31:23;;;;;;;9.43;6.00;;;;;;;;;;4990693;28;20038;-68
2023/05/26 08:33:48;;;;;;;8.15;6.18;;;;;;;;;;4992072;28;20367;-65
2023/05/26 08:36:14;;;;;;;8.73;6.03;;;;;;;;;;4991922;28;20026;-67
2023/05/26 08:38:40;;;;;;;9.80;5.85;;;;;;;;;;4991887;28;20066;-66
2023/05/26 08:41:05;;;;;;;10.40;6.68;;;;;;;;;;4990932;28;20045;-66
2023/05/26 08:43:51;;;;;;;9.25;6.00;;;;;;;;;;4992063;28;20082;-64
2023/05/26 08:46:17;;;;;;;8.95;6.90;;;;;;;;;;4992017;28;20038;-67
2023/05/26 08:48:44;;;;;;;8.32;6.32;;;;;;;;;;4992141;28;20029;-65
2023/05/26 08:51:11;;;;;;;9.30;5.93;;;;;;;;;;4991564;28;20501;-66
2023/05/26 08:53:39;;;;;;;7.57;5.93;;;;;;;;;;4991733;28;20035;-65
2023/05/26 08:56:07;;;;;;;9.65;6.47;;;;;;;;;;4991687;28;20153;-66
2023/05/26 08:58:33;;;;;;;13.55;7.78;;;;;;;;;;4991760;28;20041;-67
2023/05/26 09:01:01;;;;;;;8.68;6.47;;;;;;;;;;4991707;28;20026;-67
2023/05/26 09:03:26;;;;;;;8.98;6.55;;;;;;;;;;4991961;28;20034;-65
2023/05/26 09:05:52;;;;;;;7.90;6.65;;;;;;;;;;4991664;28;20490;-64
2023/05/26 09:08:20;;;;;;;9.00;6.25;;;;;;;;;;4990435;28;20030;-64
2023/05/26 09:10:46;;;;;;;11.40;6.25;;;;;;;;;;4991505;28;20061;-66
2023/05/26 09:13:17;;;;;;;8.48;6.25;;;;;;;;;;4991117;28;20054;-64
2023/05/26 09:15:43;;;;;;;9.70;6.10;;;;;;;;;;4991812;28;20484;-64
2023/05/26 09:18:10;;;;;;;8.38;5.82;;;;;;;;;;4990222;28;20112;-68
2023/05/26 09:20:43;;;;;;;8.05;6.45;;;;;;;;;;4991424;28;20045;-66
2023/05/26 09:23:10;;;;;;;10.32;7.35;;;;;;;;;;4991532;28;20084;-66
2023/05/26 09:25:36;;;;;;;21.50;7.82;;;;;;;;;;4991429;28;20396;-64
2023/05/26 09:28:07;;;;;;;15.57;7.22;;;;;;;;;;4994163;28;20502;-65
2023/05/26 09:30:39;;;;;;;12.73;8.35;;;;;;;;;;4990558;28;20034;-67
2023/05/26 09:33:06;;;;;;;12.70;8.07;;;;;;;;;;5002522;28;20034;-66
2023/05/26 09:35:43;;;;;;;13.52;8.57;;;;;;;;;;5004209;28;20370;-65
2023/05/26 09:38:10;;;;;;;14.98;8.85;;;;;;;;;;5008105;28;20402;-67
2023/05/26 09:40:44;;;;;;;13.55;8.00;;;;;;;;;;5010742;28;20061;-67
2023/05/26 09:43:10;;;;;;;17.58;8.15;;;;;;;;;;5011289;28;20482;-66
2023/05/26 09:45:37;;;;;;;12.95;7.97;;;;;;;;;;5006380;28;20034;-67
2023/05/26 09:48:04;;;;;;;13.82;7.50;;;;;;;;;;5009603;28;20560;-66
2023/05/26 09:50:35;;;;;;;13.75;8.90;;;;;;;;;;5009447;28;20505;-66
2023/05/26 09:53:02;;;;;;;12.93;8.82;;;;;;;;;;5009421;28;20026;-64
2023/05/26 09:55:29;;;;;;;16.83;8.77;;;;;;;;;;5010849;28;20041;-67
2023/05/26 09:58:02;;;;;;;18.50;8.95;;;;;;;;;;5005794;28;20034;-64
2023/05/26 10:00:28;;;;;;;13.02;9.43;;;;;;;;;;4991321;28;20034;-65
2023/05/26 10:02:55;;;;;;;36.65;19.45;;;;;;;;;;4990983;28;20034;-66
2023/05/26 10:05:22;;;;;;;27.45;12.63;;;;;;;;;;4991117;28;20085;-64
2023/05/26 10:07:49;;;;;;;18.33;10.60;;;;;;;;;;4991349;28;20367;-64
2023/05/26 10:10:16;;;;;;;16.40;9.43;;;;;;;;;;4991053;28;20062;-67
2023/05/26 10:12:43;;;;;;;14.82;9.82;;;;;;;;;;4990793;28;20044;-67
2023/05/26 10:15:09;;;;;;;21.08;9.18;;;;;;;;;;4991082;28;20363;-67
2023/05/26 10:17:35;;;;;;;12.57;9.02;;;;;;;;;;4990892;28;20030;-68
2023/05/26 10:20:02;;;;;;;13.70;8.82;;;;;;;;;;4991239;28;20019;-66
2023/05/26 10:22:33;;;;;;;16.73;10.55;;;;;;;;;;4990977;28;20585;-67
2023/05/26 10:25:31;;;;;;;12.18;8.82;;;;;;;;;;4991917;28;20065;-67
2023/05/26 10:28:04;;;;;;;13.25;8.90;;;;;;;;;;4997489;28;20038;-67
2023/05/26 10:30:30;;;;;;;13.82;8.40;;;;;;;;;;5010754;28;20038;-66
2023/05/26 10:33:07;;;;;;;13.25;9.23;;;;;;;;;;5011618;28;20033;-66
2023/05/26 10:35:33;;;;;;;28.00;8.98;;;;;;;;;;5014102;28;20064;-66
2023/05/26 10:38:01;;;;;;;15.48;8.63;;;;;;;;;;5013696;28;20092;-65
2023/05/26 10:40:33;;;;;;;11.98;8.02;;;;;;;;;;5012803;28;20466;-65
2023/05/26 10:43:01;;;;;;;32.95;8.52;;;;;;;;;;5014066;28;20472;-66
2023/05/26 10:45:32;;;;;;;29.33;8.40;;;;;;;;;;5013781;28;20504;-66
2023/05/26 10:47:59;;;;;;;26.52;8.63;;;;;;;;;;5013950;28;20062;-65
2023/05/26 10:50:25;;;;;;;22.05;8.25;;;;;;;;;;5013988;28;20097;-66
2023/05/26 10:52:51;;;;;;;13.93;8.38;;;;;;;;;;5013895;28;20125;-65
2023/05/26 10:55:51;;;;;;;17.13;8.00;;;;;;;;;;5013860;28;20033;-65
2023/05/26 10:58:31;;;;;;;20.77;8.18;;;;;;;;;;5005421;28;20045;-66
2023/05/26 11:01:01;;;;;;;18.95;7.97;;;;;;;;;;5013410;28;20030;-66
2023/05/26 11:03:40;;;;;;;18.15;8.15;;;;;;;;;;4996936;28;20303;-65
2023/05/26 11:06:13;;;;;;;17.42;7.80;;;;;;;;;;4993646;28;20119;-65
2023/05/26 11:08:43;;;;;;;13.52;8.10;;;;;;;;;;4993389;28;20034;-65
2023/05/26 11:11:11;;;;;;;12.35;8.00;;;;;;;;;;4993626;28;20022;-65
2023/05/26 11:13:47;;;;;;;13.32;7.63;;;;;;;;;;4992845;28;20052;-66
2023/05/26 11:16:19;;;;;;;13.93;7.95;;;;;;;;;;4995235;28;20033;-65
2023/05/26 11:19:05;;;;;;;13.80;7.28;;;;;;;;;;4993867;28;20453;-65
2023/05/26 11:21:33;;;;;;;14.50;7.53;;;;;;;;;;4995461;28;20028;-65
2023/05/26 11:24:00;;;;;;;11.77;8.02;;;;;;;;;;4998491;28;20485;-65
2023/05/26 11:26:30;;;;;;;13.95;7.65;;;;;;;;;;4993552;28;20045;-65
2023/05/26 11:28:56;;;;;;;21.50;8.30;;;;;;;;;;4993171;28;20545;-66
2023/05/26 11:31:25;;;;;;;12.82;7.38;;;;;;;;;;4993524;28;20109;-66
2023/05/26 11:33:52;;;;;;;10.38;7.80;;;;;;;;;;4992047;28;20022;-67
2023/05/26 11:36:18;;;;;;;14.52;8.25;;;;;;;;;;4991669;28;20042;-65
2023/05/26 11:38:47;;;;;;;11.45;7.38;;;;;;;;;;4992233;28;20050;-65
2023/05/26 11:41:17;;;;;;;14.68;7.70;;;;;;;;;;4991368;28;20076;-65
2023/05/26 11:43:46;;;;;;;9.43;7.68;;;;;;;;;;4993281;28;20140;-65
2023/05/26 11:46:14;;;;;;;11.55;7.97;;;;;;;;;;4993322;28;20363;-65
2023/05/26 11:48:42;;;;;;;14.07;8.15;;;;;;;;;;4993281;28;20030;-65
2023/05/26 11:51:10;;;;;;;12.88;7.80;;;;;;;;;;4975350;28;20081;-66
2023/05/26 11:53:37;;;;;;;9.75;7.53;;;;;;;;;;4992942;28;20023;-66
2023/05/26 11:56:11;;;;;;;10.50;7.63;;;;;;;;;;4992761;28;20050;-64
2023/05/26 11:58:43;;;;;;;13.77;8.40;;;;;;;;;;4992721;28;20072;-66
2023/05/26 12:01:10;;;;;;;12.50;7.47;;;;;;;;;;4992730;28;20478;-65
2023/05/26 12:03:40;;;;;;;13.60;7.93;;;;;;;;;;4992630;28;20049;-65
2023/05/26 12:06:24;;;;;;;11.30;8.10;;;;;;;;;;4993125;28;20037;-65
2023/05/26 12:08:57;;;;;;;9.85;7.50;;;;;;;;;;4992548;28;20437;-65
2023/05/26 12:11:29;;;;;;;11.32;7.82;;;;;;;;;;4992502;28;20528;-66
2023/05/26 12:14:14;;;;;;;11.63;7.63;;;;;;;;;;4992446;28;20501;-66
2023/05/26 12:16:47;;;;;;;11.57;7.50;;;;;;;;;;4992561;28;20041;-67
2023/05/26 12:19:17;;;;;;;10.88;7.45;;;;;;;;;;4992854;28;20023;-66
2023/05/26 12:21:52;;;;;;;12.00;7.97;;;;;;;;;;4992439;28;20049;-67
2023/05/26 12:24:33;;;;;;;9.60;7.50;;;;;;;;;;4992251;28;20030;-65
2023/05/26 12:27:09;;;;;;;13.75;7.90;;;;;;;;;;4992146;28;20474;-66
2023/05/26 12:29:44;;;;;;;13.27;7.68;;;;;;;;;;4992221;28;20034;-66
2023/05/26 12:32:11;;;;;;;11.50;7.85;;;;;;;;;;4992221;28;20034;-66
2023/05/26 12:34:41;;;;;;;10.45;7.38;;;;;;;;;;4992030;28;20113;-66
2023/05/26 12:37:07;;;;;;;15.63;7.07;;;;;;;;;;4992212;28;20101;-66
2023/05/26 12:39:33;;;;;;;11.15;7.30;;;;;;;;;;4992059;28;20030;-65
2023/05/26 12:42:01;;;;;;;8.02;7.15;;;;;;;;;;4992045;28;20037;-66
2023/05/26 12:44:26;;;;;;;14.93;7.25;;;;;;;;;;4991995;28;20030;-67
2023/05/26 12:46:52;;;;;;;14.60;7.75;;;;;;;;;;4991964;28;20085;-66
2023/05/26 12:49:18;;;;;;;11.95;7.20;;;;;;;;;;4992117;28;20485;-65
2023/05/26 12:51:43;;;;;;;9.18;6.97;;;;;;;;;;4991364;28;20030;-65
2023/05/26 12:54:09;;;;;;;10.93;7.35;;;;;;;;;;4992087;28;20041;-65
2023/05/26 12:56:36;;;;;;;16.23;7.75;;;;;;;;;;4990379;28;20046;-66
2023/05/26 12:59:02;;;;;;;17.42;7.50;;;;;;;;;;4991762;28;20527;-66
2023/05/26 13:01:28;;;;;;;10.75;7.85;;;;;;;;;;4991627;28;20042;-65
2023/05/26 13:03:54;;;;;;;13.48;7.30;;;;;;;;;;4991995;28;20034;-66
2023/05/26 13:06:20;;;;;;;10.07;7.78;;;;;;;;;;4991657;28;20026;-66
2023/05/26 13:08:46;;;;;;;12.77;7.68;;;;;;;;;;4991903;28;20038;-66
2023/05/26 13:11:11;;;;;;;11.98;7.72;;;;;;;;;;4991505;28;20509;-66
2023/05/26 13:13:38;;;;;;;11.60;7.60;;;;;;;;;;4991544;28;20038;-66
2023/05/26 13:16:05;;;;;;;11.13;7.20;;;;;;;;;;4991505;28;20034;-65
2023/05/26 13:18:31;;;;;;;13.68;7.88;;;;;;;;;;4991474;28;20129;-65
2023/05/26 13:20:57;;;;;;;8.90;7.05;;;;;;;;;;4991472;28;20530;-67
2023/05/26 13:23:22;;;;;;;8.50;7.57;;;;;;;;;;4991580;28;20113;-65
2023/05/26 13:25:50;;;;;;;16.02;7.25;;;;;;;;;;4991679;28;20062;-65
2023/05/26 13:28:16;;;;;;;14.43;7.68;;;;;;;;;;4991588;28;20027;-66
2023/05/26 13:30:41;;;;;;;8.57;7.57;;;;;;;;;;4991256;28;20037;-66
2023/05/26 13:33:07;;;;;;;16.33;7.47;;;;;;;;;;4991385;28;20667;-65
2023/05/26 13:35:33;;;;;;;16.30;7.53;;;;;;;;;;4991328;28;20061;-65
2023/05/26 13:37:58;;;;;;;15.68;7.97;;;;;;;;;;4991078;28;20058;-65
2023/05/26 13:40:24;;;;;;;12.23;7.68;;;;;;;;;;4991532;28;20041;-65
2023/05/26 13:42:50;;;;;;;9.25;7.38;;;;;;;;;;4991369;28;20026;-66
2023/05/26 13:45:16;;;;;;;14.45;7.43;;;;;;;;;;4991590;28;20548;-66
2023/05/26 13:47:42;;;;;;;12.65;7.88;;;;;;;;;;4991631;28;20029;-66
2023/05/26 13:50:09;;;;;;;12.85;7.60;;;;;;;;;;4991394;28;20458;-66
2023/05/26 13:52:35;;;;;;;14.75;7.82;;;;;;;;;;4991129;28;20379;-66
2023/05/26 13:55:01;;;;;;;17.67;7.88;;;;;;;;;;4991145;28;20031;-65
2023/05/26 13:57:29;;;;;;;15.90;7.13;;;;;;;;;;4991302;28;20022;-65
2023/05/26 13:59:55;;;;;;;11.75;7.32;;;;;;;;;;4990898;28;20034;-65
2023/05/26 14:02:21;;;;;;;17.60;7.75;;;;;;;;;;4991866;28;20033;-65
2023/05/26 14:04:46;;;;;;;22.73;8.57;;;;;;;;;;4994926;28;20080;-66
2023/05/26 14:07:12;;;;;;;13.75;7.45;;;;;;;;;;4994850;28;20030;-66
2023/05/26 14:09:38;;;;;;;18.38;8.18;;;;;;;;;;4993573;28;20030;-65
2023/05/26 14:12:03;;;;;;;13.60;7.53;;;;;;;;;;4994751;28;20040;-65
2023/05/26 14:14:29;;;;;;;10.95;7.53;;;;;;;;;;4995131;28;20087;-66
2023/05/26 14:16:55;;;;;;;12.70;7.40;;;;;;;;;;4995025;28;20038;-66
2023/05/26 14:19:20;;;;;;;9.18;7.45;;;;;;;;;;4994967;28;20026;-66
2023/05/26 14:21:47;;;;;;;20.58;9.27;;;;;;;;;;4994671;28;20470;-65
2023/05/26 14:24:13;;;;;;;23.85;8.88;;;;;;;;;;4994824;28;20023;-65
2023/05/26 14:26:39;;;;;;;30.13;10.60;;;;;;;;;;4994650;28;20033;-64
2023/05/26 14:29:04;;;;;;;16.95;8.48;;;;;;;;;;4994394;28;20026;-65
2023/05/26 14:31:30;;;;;;;27.38;8.70;;;;;;;;;;4994725;28;20057;-65
2023/05/26 14:33:56;;;;;;;19.67;8.07;;;;;;;;;;4994336;28;20501;-65